Time;durP1;ratioP1;P1;durP2;ratioP2;P2;SDS_P1;SDS_P2;PMS_P1;PMS_P2;Temp;Humidity;BMP_temperature;BMP_pressure;BME280_temperature;BME280_humidity;BME280_pressure;Samples;Min_cycle;Max_cycle;Signal;HPM_P1;HPM_P2
2022/11/28 04:21:34;;;;;;;20.02;10.40;;;;;;;-1.12;69.98;101693.94;6221736;23;20082;-93
2022/11/28 04:24:07;;;;;;;21.75;10.98;;;;;;;-1.26;69.78;101674.09;6147359;23;20024;-92
2022/11/28 04:26:38;;;;;;;22.38;10.70;;;;;;;-1.06;69.75;101697.75;6172707;23;20016;-93
2022/11/28 04:29:10;;;;;;;21.63;10.82;;;;;;;-1.04;69.82;101688.53;6148314;23;20021;-92
2022/11/28 04:31:55;;;;;;;28.42;11.05;;;;;;;-0.93;68.92;101700.69;6153030;23;20119;-91
2022/11/28 04:34:25;;;;;;;25.48;11.68;;;;;;;-1.31;68.91;101643.41;6202095;23;20012;-91
2022/11/28 04:36:54;;;;;;;21.92;11.75;;;;;;;-0.81;68.50;101701.94;6178221;23;20032;-96
2022/11/28 04:39:24;;;;;;;20.77;11.20;;;;;;;-1.03;68.38;101657.13;6145322;23;20021;-91
2022/11/28 04:42:12;;;;;;;21.85;10.48;;;;;;;-0.85;68.43;101711.38;6120099;23;20056;-91
2022/11/28 04:44:48;;;;;;;19.40;10.05;;;;;;;-0.98;68.55;101709.28;6127703;23;20022;-89
2022/11/28 04:47:15;;;;;;;21.63;10.18;;;;;;;-1.21;68.86;101650.22;6140978;23;20463;-91
2022/11/28 04:49:41;;;;;;;23.23;10.45;;;;;;;-0.83;67.87;101712.06;6115920;23;20122;-91
2022/11/28 04:52:19;;;;;;;19.75;10.15;;;;;;;-1.35;67.99;101621.47;6112445;23;20069;-89
2022/11/28 04:55:09;;;;;;;16.63;9.77;;;;;;;-0.95;68.34;101708.94;6089589;23;20029;-94
2022/11/28 04:58:17;;;;;;;20.65;10.73;;;;;;;-1.30;68.56;101632.50;6086503;23;20048;-91
2022/11/28 05:00:46;;;;;;;22.85;10.70;;;;;;;-1.14;67.82;101655.72;6056558;23;20048;-89
2022/11/28 05:03:38;;;;;;;21.40;10.60;;;;;;;-0.62;67.69;101715.91;6079522;23;20475;-88
2022/11/28 05:06:06;;;;;;;19.35;9.95;;;;;;;-0.81;67.17;101690.38;6053668;23;20023;-91
2022/11/28 05:08:32;;;;;;;18.70;10.18;;;;;;;-0.62;67.71;101732.88;6052724;23;20074;-91
2022/11/28 05:11:01;;;;;;;22.90;11.32;;;;;;;-0.81;67.42;101693.06;6145492;23;20341;-91
2022/11/28 05:13:31;;;;;;;22.17;10.90;;;;;;;-0.71;67.65;101694.47;6159197;23;20051;-90
2022/11/28 05:18:33;;;;;;;19.52;9.55;;;;;;;-0.65;66.87;101737.78;6160995;23;20052;-92
2022/11/28 05:21:25;;;;;;;27.92;15.77;;;;;;;-0.51;67.58;101737.81;6106988;23;20471;-91
2022/11/28 05:23:52;;;;;;;22.15;10.50;;;;;;;-0.60;67.10;101749.63;6128289;23;20025;-89
2022/11/28 05:26:41;;;;;;;19.75;9.57;;;;;;;-0.67;67.28;101746.00;6126986;23;20014;-91
2022/11/28 05:32:23;;;;;;;18.20;8.55;;;;;;;-0.59;66.79;101742.44;6086920;23;20092;-92
2022/11/28 05:35:39;;;;;;;16.90;8.80;;;;;;;-0.46;66.54;101756.09;6112586;23;20020;-91
2022/11/28 05:39:16;;;;;;;15.32;7.70;;;;;;;-0.45;66.40;101762.31;6216562;23;20016;-93
2022/11/28 05:42:32;;;;;;;16.98;7.90;;;;;;;-0.33;65.87;101767.06;6147428;23;20016;-90
2022/11/28 05:45:00;;;;;;;17.88;8.07;;;;;;;-0.76;66.00;101725.59;6146125;23;20024;-93
2022/11/28 05:47:33;;;;;;;15.73;7.72;;;;;;;-0.80;66.10;101735.84;6166371;23;20026;-89
2022/11/28 05:49:59;;;;;;;14.77;8.50;;;;;;;-0.78;66.55;101719.56;6168787;23;20124;-90
2022/11/28 05:52:28;;;;;;;19.02;8.32;;;;;;;-1.05;65.55;101680.66;6152286;23;20514;-91
2022/11/28 05:54:59;;;;;;;21.67;10.75;;;;;;;-1.10;65.71;101659.69;6157081;23;20008;-88
2022/11/28 05:57:34;;;;;;;19.27;9.35;;;;;;;-0.86;65.15;101698.97;6216067;23;20005;-89
2022/11/28 06:00:01;;;;;;;20.35;9.00;;;;;;;-0.40;65.01;101774.16;6179875;23;20100;-89
2022/11/28 06:02:29;;;;;;;18.48;8.65;;;;;;;-0.74;64.45;101702.91;6223716;23;20520;-90
2022/11/28 06:05:45;;;;;;;16.73;7.97;;;;;;;-0.26;64.09;101791.38;6197031;23;20020;-91
2022/11/28 06:08:13;;;;;;;16.48;7.97;;;;;;;-0.72;64.38;101737.66;6142903;23;20108;-91
2022/11/28 06:10:40;;;;;;;14.87;6.80;;;;;;;-0.49;64.19;101773.41;6148213;23;20024;-94
2022/11/28 06:13:11;;;;;;;13.82;7.28;;;;;;;-0.58;64.02;101744.91;6156864;23;20279;-94
2022/11/28 06:15:43;;;;;;;14.07;6.47;;;;;;;-0.89;64.08;101717.28;6161582;23;20111;-92
2022/11/28 06:18:13;;;;;;;13.23;6.70;;;;;;;-1.18;64.74;101689.28;6119083;23;20006;31
2022/11/28 06:20:40;;;;;;;15.02;7.65;;;;;;;-0.60;64.16;101754.16;6125995;23;20031;-96
2022/11/28 06:26:13;;;;;;;10.85;6.30;;;;;;;-1.01;64.06;101693.53;6197709;23;20361;-94
2022/11/28 06:29:04;;;;;;;14.27;7.05;;;;;;;-0.58;64.00;101758.34;6195444;23;20021;-89
2022/11/28 06:31:30;;;;;;;15.35;7.93;;;;;;;-0.54;64.63;101791.06;6120389;23;20032;-90
2022/11/28 06:33:57;;;;;;;16.10;8.48;;;;;;;-0.49;64.48;101769.88;6144576;23;20107;-90
2022/11/28 06:37:13;;;;;;;17.80;8.35;;;;;;;-0.20;63.97;101793.31;6142874;23;20017;-94
2022/11/28 06:39:39;;;;;;;16.98;8.27;;;;;;;-0.38;64.08;101752.50;6118825;23;20449;-92
2022/11/28 06:42:06;;;;;;;;;;;;;;;0.00;63.81;101799.06;6167222;23;20526;-93
2022/11/28 06:44:37;;;;;;;20.48;9.30;;;;;;;-0.21;64.36;101778.22;6140812;23;19985;-93
2022/11/28 06:47:03;;;;;;;19.58;8.45;;;;;;;-0.65;63.54;101702.84;6166025;23;20089;-93
2022/11/28 06:49:30;;;;;;;;;;;;;;;0.09;63.54;101800.63;6190241;23;20021;-91
2022/11/28 06:51:56;;;;;;;19.10;7.78;;;;;;;-0.18;63.80;101750.13;6141112;23;19922;-94
2022/11/28 06:57:50;;;;;;;20.27;9.45;;;;;;;0.14;63.79;101792.03;6070927;23;20120;-93
2022/11/28 07:00:17;;;;;;;21.17;9.63;;;;;;;-0.12;63.63;101752.09;6000978;23;20019;-93
2022/11/28 07:02:44;;;;;;;21.08;10.32;;;;;;;-0.02;64.69;101798.38;6050101;23;20026;-94
2022/11/28 07:05:19;;;;;;;25.30;10.95;;;;;;;-0.39;64.94;101732.84;6026049;23;20019;-93
2022/11/28 07:07:59;;;;;;;21.10;10.80;;;;;;;-0.11;64.67;101777.97;6048125;23;20023;-94
2022/11/28 07:10:43;;;;;;;19.15;9.30;;;;;;;0.00;64.78;101801.75;6049944;23;20023;-93
2022/11/28 07:13:11;;;;;;;19.33;10.27;;;;;;;-0.25;65.65;101793.88;6048717;23;20041;-92
2022/11/28 07:16:27;;;;;;;22.98;10.02;;;;;;;-0.13;65.68;101801.50;6046750;23;20118;-91
2022/11/28 07:18:54;;;;;;;21.37;10.03;;;;;;;-0.32;65.22;101781.34;6068734;23;20027;-90
2022/11/28 07:21:22;;;;;;;;;;;;;;;-0.14;65.47;101811.41;6068916;23;20272;-92
2022/11/28 07:24:47;;;;;;;20.40;9.93;;;;;;;-0.13;65.51;101814.94;6140729;23;19960;-92
2022/11/28 07:28:18;;;;;;;24.63;9.85;;;;;;;-0.22;65.78;101814.19;6115877;23;20017;-90
2022/11/28 07:30:48;;;;;;;25.38;9.32;;;;;;;-0.62;65.89;101751.69;6118035;23;20107;-90
2022/11/28 07:33:20;;;;;;;21.08;10.18;;;;;;;-0.44;65.78;101767.47;6121868;23;20021;-91
2022/11/28 07:36:17;;;;;;;23.25;10.23;;;;;;;-0.15;65.53;101812.44;6200429;23;20043;-88
2022/11/28 07:38:53;;;;;;;21.40;10.05;;;;;;;-0.14;65.94;101811.41;6176459;23;20013;-88
2022/11/28 07:41:21;;;;;;;25.83;11.25;;;;;;;-0.16;65.56;101821.53;6150023;23;20494;-85
2022/11/28 07:43:52;;;;;;;27.35;11.75;;;;;;;-0.33;66.09;101822.66;6153118;22;20027;-84
2022/11/28 07:46:30;;;;;;;26.08;11.00;;;;;;;-1.04;66.15;101720.72;6163146;23;20083;-91
2022/11/28 07:48:59;;;;;;;23.55;11.27;;;;;;;-0.55;66.62;101775.97;6195184;23;20458;-96
2022/11/28 07:51:49;;;;;;;25.92;11.40;;;;;;;-0.44;66.32;101786.28;6199481;23;20009;-96
2022/11/28 07:54:22;;;;;;;25.13;11.55;;;;;;;-0.57;66.25;101764.56;6118370;23;20048;-93
2022/11/28 07:56:49;;;;;;;20.90;10.68;;;;;;;-0.14;65.93;101826.72;6169831;23;20051;-92
2022/11/28 07:59:23;;;;;;;25.83;12.35;;;;;;;-0.06;65.43;101818.59;6162526;23;20017;-91
2022/11/28 08:02:14;;;;;;;22.95;10.52;;;;;;;-0.10;65.18;101809.19;6195407;23;20025;-92
2022/11/28 08:05:25;;;;;;;25.25;10.73;;;;;;;-0.55;65.40;101771.44;6086887;23;20043;-94
2022/11/28 08:07:53;;;;;;;23.73;10.60;;;;;;;-0.33;65.40;101802.00;6078753;23;20010;-94
2022/11/28 08:10:42;;;;;;;25.25;11.98;;;;;;;-0.28;65.44;101813.03;6087592;23;20018;-93
2022/11/28 08:13:13;;;;;;;27.40;10.93;;;;;;;-0.31;65.49;101815.25;6036612;23;20023;-87
2022/11/28 08:16:43;;;;;;;21.10;10.18;;;;;;;-0.29;65.54;101832.88;6065014;23;20567;-89
2022/11/28 08:19:10;;;;;;;23.23;9.48;;;;;;;-0.52;65.31;101794.44;6083165;23;20025;-89
2022/11/28 08:21:52;;;;;;;23.90;10.90;;;;;;;-0.88;65.16;101725.16;6149484;23;20049;-91
2022/11/28 08:24:19;;;;;;;22.08;10.50;;;;;;;-0.66;65.33;101771.00;6197188;23;20017;-87
2022/11/28 08:26:51;;;;;;;28.52;10.48;;;;;;;-0.71;65.35;101750.88;6174183;23;20474;-91
2022/11/28 08:29:45;;;;;;;27.75;10.35;;;;;;;-0.14;65.16;101841.00;6151288;23;20022;-89
2022/11/28 08:32:15;;;;;;;28.10;10.88;;;;;;;-0.66;64.45;101758.44;6161609;23;20489;-88
2022/11/28 08:34:41;;;;;;;21.55;10.45;;;;;;;-0.71;64.70;101737.47;6144411;23;20009;-90
2022/11/28 08:37:30;;;;;;;20.75;9.52;;;;;;;-0.35;64.50;101811.25;6070940;23;20003;-88
2022/11/28 08:40:22;;;;;;;31.57;10.77;;;;;;;-0.22;65.46;101843.75;6031058;23;20042;-88
2022/11/28 08:42:50;;;;;;;24.23;10.50;;;;;;;-0.17;64.51;101837.81;6073703;23;20023;-89
2022/11/28 08:45:20;;;;;;;21.85;10.60;;;;;;;-0.29;64.14;101814.06;6027472;23;20082;-94
2022/11/28 08:47:49;;;;;;;22.15;10.25;;;;;;;-0.42;63.82;101770.84;6078044;23;20074;-88
2022/11/28 08:50:17;;;;;;;23.90;10.50;;;;;;;-0.58;63.92;101760.22;6033601;23;20005;-87
2022/11/28 08:52:52;;;;;;;21.27;9.93;;;;;;;-0.27;63.81;101813.88;6043219;23;20030;-86
2022/11/28 08:57:47;;;;;;;21.08;10.45;;;;;;;-0.16;63.78;101828.78;6075045;23;20018;-88
2022/11/28 09:01:19;;;;;;;19.38;9.65;;;;;;;0.01;63.98;101857.19;6049189;23;20015;-87
2022/11/28 09:03:52;;;;;;;22.20;9.93;;;;;;;0.09;63.57;101859.78;6037161;23;20022;-87
2022/11/28 09:06:23;;;;;;;18.38;9.15;;;;;;;-0.10;63.30;101845.00;6021204;23;20014;-93
2022/11/28 09:09:14;;;;;;;18.48;9.88;;;;;;;0.11;63.16;101852.41;5998327;23;20034;-91
2022/11/28 09:11:47;;;;;;;17.40;8.27;;;;;;;-0.18;63.12;101823.56;6034624;23;20029;-89
2022/11/28 09:14:14;;;;;;;17.83;8.85;;;;;;;-0.15;62.98;101828.56;6067130;23;20024;-89
2022/11/28 09:16:49;;;;;;;21.10;8.90;;;;;;;-0.14;62.69;101813.28;6118412;23;20073;-85
2022/11/28 09:19:15;;;;;;;18.50;8.32;;;;;;;-0.48;62.09;101752.75;6128513;23;20018;-86
2022/11/28 09:21:41;;;;;;;17.30;8.90;;;;;;;0.01;62.10;101811.47;6130802;23;20481;-87
2022/11/28 09:24:12;;;;;;;19.58;8.05;;;;;;;-0.04;62.10;101806.63;6081488;23;20116;-86
2022/11/28 09:26:51;;;;;;;20.38;8.00;;;;;;;0.01;61.46;101800.72;6105484;23;20022;-86
2022/11/28 09:29:20;;;;;;;16.80;8.40;;;;;;;0.17;62.16;101851.66;6108506;23;20014;-87
2022/11/28 09:32:16;;;;;;;17.77;8.60;;;;;;;0.34;61.93;101852.34;6136838;23;20359;-85
2022/11/28 09:34:58;;;;;;;14.43;7.00;;;;;;;0.21;61.53;101858.34;6132858;23;20017;-87
2022/11/28 09:38:10;;;;;;;15.63;6.85;;;;;;;0.13;61.78;101865.66;6024924;23;20365;-88
2022/11/28 09:41:22;;;;;;;12.65;6.88;;;;;;;0.15;61.59;101864.47;6044508;23;20373;-87
2022/11/28 09:43:49;;;;;;;13.93;6.07;;;;;;;-0.14;61.09;101810.59;5984992;23;20020;-88
2022/11/28 09:46:41;;;;;;;12.50;6.28;;;;;;;0.25;61.13;101869.59;5986052;23;20032;-88
2022/11/28 09:49:36;;;;;;;16.45;7.03;;;;;;;0.20;61.37;101864.75;6009691;23;20042;-87
2022/11/28 09:52:37;;;;;;;19.85;6.85;;;;;;;-0.20;60.94;101796.00;6014031;23;20026;-88
2022/11/28 09:55:39;;;;;;;14.70;6.90;;;;;;;-0.14;61.35;101810.59;6012050;23;20004;-89
2022/11/28 09:58:21;;;;;;;11.95;6.63;;;;;;;0.08;61.56;101860.81;5990198;23;20019;-86
2022/11/28 10:01:10;;;;;;;13.73;6.60;;;;;;;0.16;60.72;101860.75;6083481;23;20017;-87
2022/11/28 10:04:13;;;;;;;12.40;5.45;;;;;;;0.26;60.00;101854.28;6146951;23;20020;-86
2022/11/28 10:10:56;;;;;;;13.95;5.20;;;;;;;0.10;60.27;101836.41;6167724;23;20020;-88
2022/11/28 10:13:52;;;;;;;13.27;6.18;;;;;;;0.19;60.99;101862.22;6068750;23;20019;-89
2022/11/28 10:17:03;;;;;;;13.50;6.15;;;;;;;0.08;61.77;101863.50;6096189;23;20026;-86
2022/11/28 10:20:31;;;;;;;35.60;14.45;;;;;;;0.34;61.81;101848.84;6188702;23;20032;-89
2022/11/28 10:23:38;;;;;;;15.63;7.32;;;;;;;0.31;61.09;101852.72;6155781;23;20080;-88
2022/11/28 10:26:12;;;;;;;15.30;8.25;;;;;;;-0.02;61.41;101798.38;6168396;23;20107;-85
2022/11/28 10:28:42;;;;;;;14.27;7.10;;;;;;;0.04;60.24;101835.31;6194319;23;20047;-87
2022/11/28 10:31:19;;;;;;;14.38;7.07;;;;;;;0.13;59.96;101860.25;6217458;23;20035;-91
2022/11/28 10:34:17;;;;;;;15.25;7.15;;;;;;;0.07;60.05;101852.94;6225725;23;20020;-93
2022/11/28 10:37:00;;;;;;;11.43;7.35;;;;;;;0.08;59.82;101857.31;6177260;23;20016;-88
2022/11/28 10:40:12;;;;;;;13.13;6.80;;;;;;;-0.15;60.00;101833.13;6231065;23;20017;-94
2022/11/28 10:43:14;;;;;;;11.80;6.90;;;;;;;-0.23;59.51;101809.84;6082583;23;20026;-90
2022/11/28 10:46:14;;;;;;;11.40;5.13;;;;;;;-0.39;59.45;101807.28;6100158;23;20369;-87
2022/11/28 10:49:15;;;;;;;10.60;3.65;;;;;;;-0.61;59.09;101777.53;6079010;23;20378;-93
2022/11/28 10:51:57;;;;;;;11.43;5.40;;;;;;;-0.17;59.18;101832.44;6086317;23;20037;-87
2022/11/28 10:54:49;;;;;;;13.45;4.57;;;;;;;-0.10;59.08;101854.91;6104904;23;20054;-93
2022/11/28 10:57:56;;;;;;;8.13;4.35;;;;;;;-0.60;58.98;101775.66;6113152;23;20044;-87
2022/11/28 11:00:26;;;;;;;8.65;4.15;;;;;;;-0.24;59.33;101851.97;6118404;23;20143;-87
2022/11/28 11:07:19;;;;;;;14.57;5.13;;;;;;;-0.78;59.81;101792.91;6209695;23;20056;-92
2022/11/28 11:09:46;;;;;;;8.18;4.57;;;;;;;-0.65;59.44;101804.94;6194102;23;20091;-87
2022/11/28 11:12:25;;;;;;;14.35;5.13;;;;;;;-0.30;59.34;101868.84;6168805;23;20013;-94
2022/11/28 11:15:19;;;;;;;11.00;4.93;;;;;;;-0.35;60.31;101873.09;6199063;23;20482;-91
2022/11/28 11:17:45;;;;;;;12.48;5.20;;;;;;;-0.78;60.62;101771.41;6198724;23;20013;-86
2022/11/28 11:20:27;;;;;;;13.90;6.43;;;;;;;-0.95;60.52;101748.38;6172271;23;20039;-91
2022/11/28 11:23:33;;;;;;;10.10;5.43;;;;;;;-0.60;59.45;101810.59;6172581;23;20028;-89
2022/11/28 11:26:01;;;;;;;13.77;5.15;;;;;;;-1.01;59.54;101759.81;6017490;23;20019;-86
2022/11/28 11:28:53;;;;;;;12.40;5.87;;;;;;;-0.47;59.62;101845.75;6048687;23;20086;-91
2022/11/28 11:31:48;;;;;;;10.93;5.55;;;;;;;-0.67;59.89;101831.13;6023721;23;20023;-85
2022/11/28 11:39:13;;;;;;;17.75;6.78;;;;;;;-0.68;60.31;101829.47;6006958;23;20035;-85
2022/11/28 11:41:41;;;;;;;14.50;6.78;;;;;;;-0.47;61.31;101878.00;6014517;23;20058;-80
2022/11/28 11:44:41;;;;;;;20.00;7.38;;;;;;;-0.66;62.19;101856.97;5986482;23;20466;-86
2022/11/28 11:47:17;;;;;;;17.23;8.15;;;;;;;-0.54;62.56;101859.06;6014137;23;20019;-82
2022/11/28 11:54:13;;;;;;;25.05;7.97;;;;;;;-0.18;60.97;101882.69;5972003;24;20047;-85
2022/11/28 11:57:01;;;;;;;14.38;6.70;;;;;;;-0.20;60.20;101887.41;6021467;23;20019;-83
2022/11/28 11:59:36;;;;;;;;;;;;;;;-0.17;60.49;101891.59;6041768;23;20103;-83
2022/11/28 12:02:46;;;;;;;17.52;7.60;;;;;;;-0.45;61.44;101894.81;6042801;23;19974;-94
2022/11/28 12:05:23;;;;;;;13.75;6.78;;;;;;;-0.60;61.47;101858.94;6073768;23;20114;-82
2022/11/28 12:08:00;;;;;;;15.48;7.40;;;;;;;-0.50;61.76;101876.53;6044860;23;20014;-93
2022/11/28 12:11:21;;;;;;;14.05;6.85;;;;;;;-0.24;60.57;101889.63;6052025;23;20023;-95
2022/11/28 12:14:43;;;;;;;17.60;7.47;;;;;;;-0.27;61.31;101892.66;6054652;23;20054;-93
2022/11/28 12:22:05;;;;;;;19.42;7.72;;;;;;;-0.59;61.31;101834.59;5944157;24;20028;-82
2022/11/28 12:24:58;;;;;;;16.52;7.97;;;;;;;-0.37;61.42;101872.41;6026887;23;20114;-83
2022/11/28 12:28:04;;;;;;;19.83;9.15;;;;;;;-0.34;61.48;101891.69;6043559;23;20023;-86
2022/11/28 12:30:49;;;;;;;25.47;8.63;;;;;;;-0.21;61.48;101890.28;6000010;23;20028;-83
2022/11/28 12:33:34;;;;;;;21.33;8.88;;;;;;;-0.23;61.08;101895.84;5997151;23;20257;-85
2022/11/28 12:36:10;;;;;;;21.98;8.23;;;;;;;-0.59;61.72;101856.09;6018218;23;20071;-94
2022/11/28 12:39:08;;;;;;;20.23;8.63;;;;;;;-0.37;61.58;101886.69;6011220;23;20024;-85
2022/11/28 12:42:01;;;;;;;23.25;8.05;;;;;;;-0.55;61.38;101886.13;6012795;23;20462;-87
2022/11/28 12:45:14;;;;;;;15.32;7.63;;;;;;;-0.39;61.88;101902.16;6045882;23;20501;-91
2022/11/28 12:48:08;;;;;;;20.50;9.02;;;;;;;-0.34;61.98;101907.81;6049053;23;20105;-88
2022/11/28 12:50:53;;;;;;;29.98;10.40;;;;;;;-0.28;61.97;101914.34;6044946;23;20023;-88
2022/11/28 12:53:56;;;;;;;26.60;10.68;;;;;;;-0.37;61.59;101904.66;6156241;23;20044;-87
2022/11/28 12:56:37;;;;;;;19.70;8.90;;;;;;;-0.54;60.84;101887.78;6215386;23;20027;-85
2022/11/28 12:59:39;;;;;;;19.92;9.18;;;;;;;-0.69;61.33;101860.03;6141591;23;20062;-88
2022/11/28 13:02:34;;;;;;;17.05;8.98;;;;;;;-0.34;61.12;101913.22;6190972;23;20020;-90
2022/11/28 13:05:13;;;;;;;16.13;8.57;;;;;;;-0.66;61.82;101878.44;6217665;23;20100;-90
2022/11/28 13:08:07;;;;;;;16.63;8.20;;;;;;;-0.57;62.38;101912.31;6193371;23;20016;-89
2022/11/28 13:11:11;;;;;;;16.75;8.32;;;;;;;-0.72;62.76;101923.81;6193278;23;20482;-91
2022/11/28 13:14:03;;;;;;;14.82;7.55;;;;;;;-0.69;62.82;101925.31;6147971;23;20027;-90
2022/11/28 13:16:43;;;;;;;12.52;6.50;;;;;;;-0.86;62.85;101934.44;6222138;23;20016;-92
2022/11/28 13:19:29;;;;;;;11.02;5.50;;;;;;;-0.87;62.89;101924.72;6223203;23;20513;-92
2022/11/28 13:22:00;;;;;;;11.95;5.38;;;;;;;-0.95;62.61;101930.97;6196996;23;20020;-90
2022/11/28 13:24:41;;;;;;;9.52;5.47;;;;;;;-0.93;62.75;101938.84;6219054;23;20020;-90
2022/11/28 13:27:22;;;;;;;9.52;5.05;;;;;;;-1.26;62.74;101891.47;6192523;23;20020;-91
2022/11/28 13:30:18;;;;;;;10.57;6.03;;;;;;;-1.01;62.47;101916.38;6139021;23;20020;-90
2022/11/28 13:33:06;;;;;;;13.65;7.28;;;;;;;-1.15;62.83;101910.91;6082390;23;20518;-90
2022/11/28 13:35:36;;;;;;;15.00;7.57;;;;;;;-1.00;62.86;101933.31;6216349;23;20454;-89
2022/11/28 13:38:14;;;;;;;14.13;7.43;;;;;;;-1.27;63.18;101881.72;6165204;23;20107;-89
2022/11/28 13:41:00;;;;;;;14.48;7.57;;;;;;;-1.03;62.72;101914.88;6193249;23;20016;-91
2022/11/28 13:43:54;;;;;;;14.68;7.22;;;;;;;-0.88;62.54;101931.94;6217819;23;20075;-89
2022/11/28 13:46:26;;;;;;;13.15;7.70;;;;;;;-0.91;62.60;101928.78;6167844;23;20023;-91
2022/11/28 13:49:00;;;;;;;13.43;6.95;;;;;;;-0.84;62.41;101938.63;6220843;23;20020;-85
2022/11/28 13:51:32;;;;;;;14.00;7.00;;;;;;;-0.76;61.58;101937.78;6144646;23;20625;-91
2022/11/28 13:54:16;;;;;;;12.88;6.32;;;;;;;-0.77;60.78;101933.41;6168039;23;20355;-91
2022/11/28 13:57:08;;;;;;;14.18;6.85;;;;;;;-0.95;60.95;101910.31;6217794;23;20047;-91
2022/11/28 13:59:36;;;;;;;11.27;6.72;;;;;;;-1.30;60.83;101846.34;6166609;23;20024;-89
2022/11/28 14:02:21;;;;;;;14.70;6.82;;;;;;;-1.20;60.61;101880.00;6189747;23;20032;-91
2022/11/28 14:04:49;;;;;;;12.18;6.38;;;;;;;-1.36;61.04;101847.03;6165781;23;20107;-89
2022/11/28 14:07:29;;;;;;;13.32;6.80;;;;;;;-0.68;61.18;101929.69;6191706;23;20095;-90
2022/11/28 14:10:39;;;;;;;12.63;6.95;;;;;;;-0.78;61.29;101932.56;6218506;23;20016;-87
2022/11/28 14:16:53;;;;;;;10.48;5.85;;;;;;;-1.04;60.87;101910.50;6073588;23;20615;-91
2022/11/28 14:19:46;;;;;;;10.25;5.60;;;;;;;-0.91;60.65;101950.25;6041602;23;20025;-85
2022/11/28 14:22:44;;;;;;;9.15;5.35;;;;;;;-0.93;60.88;101954.94;6077419;23;20055;-86
2022/11/28 14:25:41;;;;;;;8.60;4.65;;;;;;;-1.06;61.63;101950.09;6069131;23;20046;-84
2022/11/28 14:28:45;;;;;;;8.80;4.78;;;;;;;-1.05;61.43;101954.50;6074658;23;20029;-84
2022/11/28 14:32:00;;;;;;;11.18;5.95;;;;;;;-1.14;61.52;101959.03;6085692;23;20022;-83
2022/11/28 14:34:54;;;;;;;9.98;5.22;;;;;;;-1.16;62.19;101960.19;6070418;23;20027;-82
2022/11/28 14:37:46;;;;;;;8.80;5.15;;;;;;;-1.32;61.90;101944.97;6072557;23;20019;-85
2022/11/28 14:40:53;;;;;;;11.00;5.70;;;;;;;-1.16;62.51;101974.44;6058367;23;20111;-83
2022/11/28 14:43:41;;;;;;;12.52;5.82;;;;;;;-1.16;63.46;101970.94;6071908;23;20026;-83
2022/11/28 14:46:45;;;;;;;11.65;6.28;;;;;;;-1.56;63.63;101916.31;6043708;23;20484;-84
2022/11/28 14:49:18;;;;;;;13.25;7.40;;;;;;;-1.71;63.93;101884.81;6074537;23;20487;-85
2022/11/28 14:51:45;;;;;;;12.90;7.13;;;;;;;-1.28;64.40;101955.19;6062840;23;20022;-85
2022/11/28 14:54:26;;;;;;;16.42;7.60;;;;;;;-1.31;64.73;101952.00;6185072;23;20099;-84
2022/11/28 14:56:55;;;;;;;14.75;7.65;;;;;;;-1.87;65.51;101871.41;6213330;23;20017;-84
2022/11/28 14:59:31;;;;;;;14.95;7.53;;;;;;;-1.81;65.37;101886.00;6161995;23;20021;-85
2022/11/28 15:02:30;;;;;;;16.88;8.30;;;;;;;-1.45;65.54;101937.44;6214421;23;20107;-86
2022/11/28 15:05:21;;;;;;;17.08;8.45;;;;;;;-1.35;65.67;101954.19;6188429;23;20016;-84
2022/11/28 15:08:09;;;;;;;18.67;8.15;;;;;;;-1.38;65.55;101954.53;6156264;23;20048;-84
2022/11/28 15:11:01;;;;;;;15.13;7.38;;;;;;;-1.28;64.93;101951.69;6136417;23;20019;-87
2022/11/28 15:14:19;;;;;;;10.50;6.18;;;;;;;-1.49;63.90;101922.66;6186721;23;20012;-86
2022/11/28 15:20:50;;;;;;;11.93;6.13;;;;;;;-1.45;64.13;101938.28;6162014;23;20035;-87
2022/11/28 15:24:02;;;;;;;9.45;4.63;;;;;;;-1.36;63.97;101949.81;6166413;23;20025;-86
2022/11/28 15:26:43;;;;;;;10.27;4.60;;;;;;;-1.59;63.78;101930.06;6198383;23;20017;-87
2022/11/28 15:32:41;;;;;;;6.05;3.50;;;;;;;-1.67;64.46;101942.47;6149622;23;20017;-85
2022/11/28 15:35:25;;;;;;;8.23;4.43;;;;;;;-1.57;64.70;101942.31;6138316;23;20025;-87
2022/11/28 15:38:14;;;;;;;13.32;4.15;;;;;;;-1.82;64.41;101906.63;6126640;23;20523;-86
2022/11/28 15:40:54;;;;;;;7.82;4.25;;;;;;;-1.58;64.83;101963.94;6129575;23;20017;-84
2022/11/28 15:43:43;;;;;;;9.90;5.20;;;;;;;-1.51;64.69;101959.59;6137686;23;20098;-86
2022/11/28 15:46:33;;;;;;;10.27;5.35;;;;;;;-1.63;64.19;101915.31;6127903;23;20014;-86
2022/11/28 15:49:00;;;;;;;9.93;5.32;;;;;;;-1.36;64.10;101963.25;6129265;23;20444;-88
2022/11/28 15:51:36;;;;;;;11.75;5.68;;;;;;;-1.44;64.39;101976.66;6129663;23;20018;-85
2022/11/28 15:54:36;;;;;;;9.48;5.45;;;;;;;-1.46;64.11;101950.03;6102071;23;20014;-83
2022/11/28 15:57:04;;;;;;;18.45;8.82;;;;;;;-1.25;64.28;101970.13;6101066;23;20022;-82
2022/11/28 15:59:42;;;;;;;13.50;6.63;;;;;;;-1.36;64.23;101962.41;6077991;23;20013;-82
2022/11/28 16:02:33;;;;;;;14.48;7.10;;;;;;;-1.39;64.21;101954.69;6105678;23;20139;-84
2022/11/28 16:05:14;;;;;;;15.25;6.72;;;;;;;-1.19;63.77;101969.44;6109590;23;20018;-84
2022/11/28 16:10:58;;;;;;;12.85;6.45;;;;;;;-1.26;64.25;101971.97;6108694;23;20018;-85
2022/11/28 16:13:28;;;;;;;10.63;5.20;;;;;;;-1.55;63.88;101915.31;6105792;23;20025;-85
2022/11/28 16:16:34;;;;;;;12.65;6.75;;;;;;;-1.23;63.98;101965.41;6133614;23;20073;-89
2022/11/28 16:19:43;;;;;;;15.23;6.80;;;;;;;-1.73;63.79;101889.50;6155057;23;20025;-83
2022/11/28 16:22:53;;;;;;;18.92;6.65;;;;;;;-1.21;63.69;101969.59;6154087;23;20025;-86
2022/11/28 16:25:25;;;;;;;14.15;6.70;;;;;;;-1.37;63.99;101950.84;6185941;23;20028;-82
2022/11/28 16:27:56;;;;;;;9.60;5.60;;;;;;;-1.19;63.65;101964.09;6169072;23;20020;-84
2022/11/28 16:30:27;;;;;;;13.93;6.70;;;;;;;-1.25;63.38;101967.44;6162478;23;20021;-89
2022/11/28 16:32:58;;;;;;;16.35;7.65;;;;;;;-1.36;63.58;101930.19;6183624;23;20100;-85
2022/11/28 16:35:28;;;;;;;13.60;7.25;;;;;;;-1.34;63.37;101947.81;6128530;23;20017;-85
2022/11/28 16:38:20;;;;;;;15.45;7.82;;;;;;;-1.27;63.54;101937.25;6154600;23;20017;-82
2022/11/28 16:40:49;;;;;;;17.95;8.75;;;;;;;-1.19;63.52;101950.66;6154916;23;20021;-83
2022/11/28 16:43:50;;;;;;;18.38;8.98;;;;;;;-1.31;63.33;101930.53;6181268;23;20020;-84
2022/11/28 16:46:23;;;;;;;17.20;9.35;;;;;;;-1.29;63.55;101961.56;6065737;23;20034;-81
2022/11/28 16:48:57;;;;;;;16.92;9.52;;;;;;;-1.33;64.03;101956.69;6067440;23;20048;-85
2022/11/28 16:51:36;;;;;;;20.08;9.60;;;;;;;-1.13;63.67;101971.44;6075718;23;19998;-91
2022/11/28 16:54:31;;;;;;;16.25;8.07;;;;;;;-1.14;63.62;101964.41;6085893;23;20035;-88
2022/11/28 16:57:13;;;;;;;11.15;6.57;;;;;;;-1.19;63.45;101958.72;6051828;23;20017;-86
2022/11/28 16:59:43;;;;;;;12.98;6.88;;;;;;;-1.23;63.14;101942.09;6025645;23;20620;-93
2022/11/28 17:02:18;;;;;;;16.67;8.15;;;;;;;-1.04;63.03;101962.34;6051713;23;20102;-85
2022/11/28 17:04:48;;;;;;;18.48;7.88;;;;;;;-1.16;62.86;101928.00;6054884;23;20043;-83
2022/11/28 17:07:16;;;;;;;15.93;8.10;;;;;;;-1.11;62.65;101953.31;6017732;23;20027;-85
2022/11/28 17:09:51;;;;;;;16.48;8.52;;;;;;;-1.31;63.69;101966.25;6014805;23;20504;-84
2022/11/28 17:12:25;;;;;;;13.25;7.50;;;;;;;-1.29;64.35;101972.31;5985865;23;20190;-85
2022/11/28 17:14:53;;;;;;;17.95;7.18;;;;;;;-1.26;63.89;101950.50;5978865;24;20427;-86
2022/11/28 17:17:22;;;;;;;11.98;6.82;;;;;;;-1.01;63.51;101964.69;5932793;24;20041;-84
2022/11/28 17:19:49;;;;;;;13.98;6.30;;;;;;;-1.48;63.68;101908.28;5937176;24;20099;-85
2022/11/28 17:22:26;;;;;;;11.20;5.82;;;;;;;-1.20;64.24;101979.31;5968663;23;20131;-91
2022/11/28 17:24:58;;;;;;;12.15;7.55;;;;;;;-1.34;63.98;101936.25;6072668;23;20019;-90
2022/11/28 17:27:25;;;;;;;13.57;6.97;;;;;;;-1.44;63.75;101907.75;6098069;23;20058;-92
2022/11/28 17:29:54;;;;;;;11.80;6.82;;;;;;;-1.11;63.39;101953.31;6075358;23;20029;-88
2022/11/28 17:32:20;;;;;;;14.90;7.57;;;;;;;-1.46;63.21;101892.81;6097497;23;20082;-86
2022/11/28 17:34:47;;;;;;;16.67;6.85;;;;;;;-1.08;63.04;101939.56;6076521;23;20432;-84
2022/11/28 17:37:15;;;;;;;11.63;6.05;;;;;;;-0.97;63.08;101982.13;6100153;23;20014;-90
2022/11/28 17:42:34;;;;;;;10.40;6.30;;;;;;;-0.95;63.67;101973.94;6109333;23;20019;-89